sensor_id;sensor_type;location;lat;lon;timestamp;P1;durP1;ratioP1;P2;durP2;ratioP2
68196;SDS011;55019;49.382;11.358;2023-06-10T00:00:46;3.58;;;3.10;;
68196;SDS011;55019;49.382;11.358;2023-06-10T00:03:15;4.50;;;3.25;;
68196;SDS011;55019;49.382;11.358;2023-06-10T00:05:44;5.07;;;3.45;;
68196;SDS011;55019;49.382;11.358;2023-06-10T00:08:10;4.22;;;3.15;;
68196;SDS011;55019;49.382;11.358;2023-06-10T00:10:36;3.90;;;3.03;;
68196;SDS011;55019;49.382;11.358;2023-06-10T00:13:05;3.92;;;3.55;;
68196;SDS011;55019;49.382;11.358;2023-06-10T00:15:34;4.18;;;3.78;;
68196;SDS011;55019;49.382;11.358;2023-06-10T00:18:03;5.10;;;3.72;;
68196;SDS011;55019;49.382;11.358;2023-06-10T00:20:30;4.50;;;3.65;;
68196;SDS011;55019;49.382;11.358;2023-06-10T00:22:56;4.57;;;3.50;;
68196;SDS011;55019;49.382;11.358;2023-06-10T00:25:24;4.78;;;2.85;;
68196;SDS011;55019;49.382;11.358;2023-06-10T00:27:51;5.40;;;3.65;;
68196;SDS011;55019;49.382;11.358;2023-06-10T00:30:17;4.97;;;3.83;;
68196;SDS011;55019;49.382;11.358;2023-06-10T00:32:43;4.28;;;3.33;;
68196;SDS011;55019;49.382;11.358;2023-06-10T00:35:09;3.83;;;3.08;;
68196;SDS011;55019;49.382;11.358;2023-06-10T00:37:34;4.22;;;3.55;;
68196;SDS011;55019;49.382;11.358;2023-06-10T00:40:02;4.80;;;3.35;;
68196;SDS011;55019;49.382;11.358;2023-06-10T00:42:31;4.40;;;3.10;;
68196;SDS011;55019;49.382;11.358;2023-06-10T00:44:57;5.63;;;4.15;;
68196;SDS011;55019;49.382;11.358;2023-06-10T00:47:23;4.13;;;3.47;;
68196;SDS011;55019;49.382;11.358;2023-06-10T00:49:52;4.30;;;2.65;;
68196;SDS011;55019;49.382;11.358;2023-06-10T00:52:19;4.20;;;3.35;;
68196;SDS011;55019;49.382;11.358;2023-06-10T00:54:47;3.97;;;3.40;;
68196;SDS011;55019;49.382;11.358;2023-06-10T00:57:14;3.75;;;2.80;;
68196;SDS011;55019;49.382;11.358;2023-06-10T00:59:41;4.03;;;3.00;;
68196;SDS011;55019;49.382;11.358;2023-06-10T01:02:12;3.67;;;3.30;;
68196;SDS011;55019;49.382;11.358;2023-06-10T01:04:38;4.30;;;3.33;;
68196;SDS011;55019;49.382;11.358;2023-06-10T01:12:42;4.32;;;3.10;;
68196;SDS011;55019;49.382;11.358;2023-06-10T01:15:17;3.63;;;3.00;;
68196;SDS011;55019;49.382;11.358;2023-06-10T01:18:04;4.32;;;3.22;;
68196;SDS011;55019;49.382;11.358;2023-06-10T01:20:34;4.45;;;2.97;;
68196;SDS011;55019;49.382;11.358;2023-06-10T01:23:05;4.00;;;3.60;;
68196;SDS011;55019;49.382;11.358;2023-06-10T01:25:32;3.60;;;2.80;;
68196;SDS011;55019;49.382;11.358;2023-06-10T01:28:05;4.63;;;3.28;;
68196;SDS011;55019;49.382;11.358;2023-06-10T01:33:28;3.40;;;2.97;;
68196;SDS011;55019;49.382;11.358;2023-06-10T01:35:59;4.57;;;3.05;;
68196;SDS011;55019;49.382;11.358;2023-06-10T01:38:27;4.10;;;3.00;;
68196;SDS011;55019;49.382;11.358;2023-06-10T01:40:58;4.30;;;2.72;;
68196;SDS011;55019;49.382;11.358;2023-06-10T01:43:24;3.30;;;2.70;;
68196;SDS011;55019;49.382;11.358;2023-06-10T01:45:50;4.03;;;3.00;;
68196;SDS011;55019;49.382;11.358;2023-06-10T01:48:16;3.67;;;3.08;;
68196;SDS011;55019;49.382;11.358;2023-06-10T01:50:41;3.78;;;2.67;;
68196;SDS011;55019;49.382;11.358;2023-06-10T01:55:34;4.40;;;3.50;;
68196;SDS011;55019;49.382;11.358;2023-06-10T01:58:00;4.63;;;3.50;;
68196;SDS011;55019;49.382;11.358;2023-06-10T02:00:26;4.15;;;3.22;;
68196;SDS011;55019;49.382;11.358;2023-06-10T02:02:51;4.63;;;3.40;;
68196;SDS011;55019;49.382;11.358;2023-06-10T02:05:17;3.50;;;3.15;;
68196;SDS011;55019;49.382;11.358;2023-06-10T02:07:43;3.65;;;3.03;;
68196;SDS011;55019;49.382;11.358;2023-06-10T02:10:09;3.33;;;2.90;;
68196;SDS011;55019;49.382;11.358;2023-06-10T02:12:35;5.30;;;3.42;;
68196;SDS011;55019;49.382;11.358;2023-06-10T02:15:00;4.57;;;3.30;;
68196;SDS011;55019;49.382;11.358;2023-06-10T02:17:26;3.30;;;3.00;;
68196;SDS011;55019;49.382;11.358;2023-06-10T02:19:52;3.75;;;2.97;;
68196;SDS011;55019;49.382;11.358;2023-06-10T02:22:21;3.85;;;3.30;;
68196;SDS011;55019;49.382;11.358;2023-06-10T02:24:47;3.85;;;3.30;;
68196;SDS011;55019;49.382;11.358;2023-06-10T02:27:14;4.28;;;3.10;;
68196;SDS011;55019;49.382;11.358;2023-06-10T02:29:44;3.95;;;3.00;;
68196;SDS011;55019;49.382;11.358;2023-06-10T02:32:10;8.85;;;3.53;;
68196;SDS011;55019;49.382;11.358;2023-06-10T02:34:36;3.65;;;3.03;;
68196;SDS011;55019;49.382;11.358;2023-06-10T02:37:03;3.75;;;3.15;;
68196;SDS011;55019;49.382;11.358;2023-06-10T02:39:30;4.15;;;3.20;;
68196;SDS011;55019;49.382;11.358;2023-06-10T02:41:56;4.68;;;3.40;;
68196;SDS011;55019;49.382;11.358;2023-06-10T02:44:22;4.28;;;3.50;;
68196;SDS011;55019;49.382;11.358;2023-06-10T02:46:48;4.57;;;3.33;;
68196;SDS011;55019;49.382;11.358;2023-06-10T02:49:14;5.38;;;3.65;;
68196;SDS011;55019;49.382;11.358;2023-06-10T02:51:41;4.57;;;3.60;;
68196;SDS011;55019;49.382;11.358;2023-06-10T02:54:07;4.25;;;3.85;;
68196;SDS011;55019;49.382;11.358;2023-06-10T02:56:33;4.40;;;3.22;;
68196;SDS011;55019;49.382;11.358;2023-06-10T02:59:02;4.90;;;3.72;;
68196;SDS011;55019;49.382;11.358;2023-06-10T03:01:29;4.90;;;3.50;;
68196;SDS011;55019;49.382;11.358;2023-06-10T03:04:04;4.68;;;3.65;;
68196;SDS011;55019;49.382;11.358;2023-06-10T03:06:32;4.97;;;4.03;;
68196;SDS011;55019;49.382;11.358;2023-06-10T03:09:16;6.22;;;4.20;;
68196;SDS011;55019;49.382;11.358;2023-06-10T03:11:45;5.13;;;3.78;;
68196;SDS011;55019;49.382;11.358;2023-06-10T03:14:11;4.78;;;3.40;;
68196;SDS011;55019;49.382;11.358;2023-06-10T03:16:37;4.25;;;3.28;;
68196;SDS011;55019;49.382;11.358;2023-06-10T03:19:06;5.05;;;3.70;;
68196;SDS011;55019;49.382;11.358;2023-06-10T03:21:34;4.45;;;3.33;;
68196;SDS011;55019;49.382;11.358;2023-06-10T03:24:00;4.30;;;3.90;;
68196;SDS011;55019;49.382;11.358;2023-06-10T03:26:27;4.82;;;3.55;;
68196;SDS011;55019;49.382;11.358;2023-06-10T03:28:54;4.63;;;3.50;;
68196;SDS011;55019;49.382;11.358;2023-06-10T03:31:22;4.95;;;3.78;;
68196;SDS011;55019;49.382;11.358;2023-06-10T03:33:50;4.45;;;3.38;;
68196;SDS011;55019;49.382;11.358;2023-06-10T03:36:16;4.93;;;3.45;;
68196;SDS011;55019;49.382;11.358;2023-06-10T03:38:42;3.92;;;3.30;;
68196;SDS011;55019;49.382;11.358;2023-06-10T03:41:08;4.00;;;3.40;;
68196;SDS011;55019;49.382;11.358;2023-06-10T03:43:37;4.80;;;3.38;;
68196;SDS011;55019;49.382;11.358;2023-06-10T03:46:04;3.60;;;3.20;;
68196;SDS011;55019;49.382;11.358;2023-06-10T03:48:31;4.78;;;4.18;;
68196;SDS011;55019;49.382;11.358;2023-06-10T03:50:57;4.32;;;3.30;;
68196;SDS011;55019;49.382;11.358;2023-06-10T03:53:24;5.07;;;3.30;;
68196;SDS011;55019;49.382;11.358;2023-06-10T03:55:50;4.30;;;3.30;;
68196;SDS011;55019;49.382;11.358;2023-06-10T03:58:19;4.30;;;3.28;;
68196;SDS011;55019;49.382;11.358;2023-06-10T04:00:45;6.15;;;4.00;;
68196;SDS011;55019;49.382;11.358;2023-06-10T04:03:12;3.80;;;3.08;;
68196;SDS011;55019;49.382;11.358;2023-06-10T04:05:44;5.18;;;3.38;;
68196;SDS011;55019;49.382;11.358;2023-06-10T04:08:10;4.15;;;3.50;;
68196;SDS011;55019;49.382;11.358;2023-06-10T04:10:36;5.82;;;3.58;;
68196;SDS011;55019;49.382;11.358;2023-06-10T04:13:02;3.78;;;3.28;;
68196;SDS011;55019;49.382;11.358;2023-06-10T04:15:32;4.20;;;3.50;;
68196;SDS011;55019;49.382;11.358;2023-06-10T04:18:01;3.88;;;3.35;;
68196;SDS011;55019;49.382;11.358;2023-06-10T04:20:27;6.55;;;4.15;;
68196;SDS011;55019;49.382;11.358;2023-06-10T04:22:53;4.90;;;3.60;;
68196;SDS011;55019;49.382;11.358;2023-06-10T04:25:19;6.45;;;3.72;;
68196;SDS011;55019;49.382;11.358;2023-06-10T04:27:47;4.70;;;4.03;;
68196;SDS011;55019;49.382;11.358;2023-06-10T04:30:13;5.32;;;4.50;;
68196;SDS011;55019;49.382;11.358;2023-06-10T04:32:39;4.65;;;3.58;;
68196;SDS011;55019;49.382;11.358;2023-06-10T04:35:13;4.57;;;3.53;;
68196;SDS011;55019;49.382;11.358;2023-06-10T04:37:40;4.78;;;3.63;;
68196;SDS011;55019;49.382;11.358;2023-06-10T04:40:07;4.38;;;3.88;;
68196;SDS011;55019;49.382;11.358;2023-06-10T04:42:33;6.80;;;3.90;;
68196;SDS011;55019;49.382;11.358;2023-06-10T04:44:59;4.90;;;4.40;;
68196;SDS011;55019;49.382;11.358;2023-06-10T04:47:25;4.40;;;3.45;;
68196;SDS011;55019;49.382;11.358;2023-06-10T04:49:52;4.40;;;3.28;;
68196;SDS011;55019;49.382;11.358;2023-06-10T04:52:17;4.53;;;3.53;;
68196;SDS011;55019;49.382;11.358;2023-06-10T04:54:44;5.00;;;3.60;;
68196;SDS011;55019;49.382;11.358;2023-06-10T04:57:09;4.30;;;3.45;;
68196;SDS011;55019;49.382;11.358;2023-06-10T04:59:37;3.90;;;3.30;;
68196;SDS011;55019;49.382;11.358;2023-06-10T05:02:04;4.70;;;3.40;;
68196;SDS011;55019;49.382;11.358;2023-06-10T05:04:30;4.20;;;3.40;;
68196;SDS011;55019;49.382;11.358;2023-06-10T05:06:56;4.70;;;3.83;;
68196;SDS011;55019;49.382;11.358;2023-06-10T05:09:22;4.18;;;3.13;;
68196;SDS011;55019;49.382;11.358;2023-06-10T05:11:47;4.28;;;3.50;;
68196;SDS011;55019;49.382;11.358;2023-06-10T05:14:13;4.35;;;3.50;;
68196;SDS011;55019;49.382;11.358;2023-06-10T05:19:06;4.95;;;3.63;;
68196;SDS011;55019;49.382;11.358;2023-06-10T05:21:32;3.58;;;3.22;;
68196;SDS011;55019;49.382;11.358;2023-06-10T05:23:57;4.25;;;3.40;;
68196;SDS011;55019;49.382;11.358;2023-06-10T05:26:23;4.13;;;2.95;;
68196;SDS011;55019;49.382;11.358;2023-06-10T05:28:50;4.88;;;3.40;;
68196;SDS011;55019;49.382;11.358;2023-06-10T05:31:16;3.92;;;3.53;;
68196;SDS011;55019;49.382;11.358;2023-06-10T05:33:42;3.50;;;3.20;;
68196;SDS011;55019;49.382;11.358;2023-06-10T05:36:07;4.40;;;3.50;;
68196;SDS011;55019;49.382;11.358;2023-06-10T05:38:33;4.00;;;3.05;;
68196;SDS011;55019;49.382;11.358;2023-06-10T05:40:59;5.18;;;4.30;;
68196;SDS011;55019;49.382;11.358;2023-06-10T05:43:25;4.10;;;3.22;;
68196;SDS011;55019;49.382;11.358;2023-06-10T05:45:51;3.65;;;3.33;;
68196;SDS011;55019;49.382;11.358;2023-06-10T05:48:16;4.60;;;3.58;;
68196;SDS011;55019;49.382;11.358;2023-06-10T05:50:42;6.43;;;5.30;;
68196;SDS011;55019;49.382;11.358;2023-06-10T05:53:14;5.03;;;4.30;;
68196;SDS011;55019;49.382;11.358;2023-06-10T05:58:10;4.75;;;3.72;;
68196;SDS011;55019;49.382;11.358;2023-06-10T06:00:40;5.72;;;5.20;;
68196;SDS011;55019;49.382;11.358;2023-06-10T06:03:07;4.47;;;3.63;;
68196;SDS011;55019;49.382;11.358;2023-06-10T06:05:33;3.78;;;3.17;;
68196;SDS011;55019;49.382;11.358;2023-06-10T06:08:01;5.10;;;4.28;;
68196;SDS011;55019;49.382;11.358;2023-06-10T06:10:27;4.30;;;3.90;;
68196;SDS011;55019;49.382;11.358;2023-06-10T06:12:53;3.95;;;3.60;;
68196;SDS011;55019;49.382;11.358;2023-06-10T06:15:18;4.50;;;4.10;;
68196;SDS011;55019;49.382;11.358;2023-06-10T06:17:44;5.35;;;3.60;;
68196;SDS011;55019;49.382;11.358;2023-06-10T06:20:10;4.30;;;3.88;;
68196;SDS011;55019;49.382;11.358;2023-06-10T06:22:36;4.57;;;3.97;;
68196;SDS011;55019;49.382;11.358;2023-06-10T06:25:02;4.20;;;3.80;;
68196;SDS011;55019;49.382;11.358;2023-06-10T06:27:28;5.03;;;4.43;;
68196;SDS011;55019;49.382;11.358;2023-06-10T06:29:54;4.10;;;3.70;;
68196;SDS011;55019;49.382;11.358;2023-06-10T06:32:20;4.45;;;3.80;;
68196;SDS011;55019;49.382;11.358;2023-06-10T06:34:47;4.00;;;3.60;;
68196;SDS011;55019;49.382;11.358;2023-06-10T06:37:14;4.53;;;3.60;;
68196;SDS011;55019;49.382;11.358;2023-06-10T06:39:42;5.60;;;4.90;;
68196;SDS011;55019;49.382;11.358;2023-06-10T06:42:08;4.18;;;3.67;;
68196;SDS011;55019;49.382;11.358;2023-06-10T06:45:03;5.00;;;4.45;;
68196;SDS011;55019;49.382;11.358;2023-06-10T06:47:30;4.82;;;4.25;;
68196;SDS011;55019;49.382;11.358;2023-06-10T06:49:56;5.65;;;4.15;;
68196;SDS011;55019;49.382;11.358;2023-06-10T06:52:21;5.30;;;4.80;;
68196;SDS011;55019;49.382;11.358;2023-06-10T06:54:47;5.55;;;4.50;;
68196;SDS011;55019;49.382;11.358;2023-06-10T06:57:13;4.85;;;4.30;;
68196;SDS011;55019;49.382;11.358;2023-06-10T06:59:39;5.47;;;4.70;;
68196;SDS011;55019;49.382;11.358;2023-06-10T07:02:05;5.60;;;4.18;;
68196;SDS011;55019;49.382;11.358;2023-06-10T07:04:31;5.05;;;4.53;;
68196;SDS011;55019;49.382;11.358;2023-06-10T07:06:57;5.28;;;4.78;;
68196;SDS011;55019;49.382;11.358;2023-06-10T07:09:22;4.85;;;4.07;;
68196;SDS011;55019;49.382;11.358;2023-06-10T07:11:48;5.70;;;4.45;;
68196;SDS011;55019;49.382;11.358;2023-06-10T07:14:14;5.50;;;4.97;;
68196;SDS011;55019;49.382;11.358;2023-06-10T07:16:39;5.35;;;4.85;;
68196;SDS011;55019;49.382;11.358;2023-06-10T07:19:06;5.65;;;5.07;;
68196;SDS011;55019;49.382;11.358;2023-06-10T07:21:31;6.10;;;4.80;;
68196;SDS011;55019;49.382;11.358;2023-06-10T07:23:59;5.95;;;5.03;;
68196;SDS011;55019;49.382;11.358;2023-06-10T07:26:25;4.93;;;4.53;;
68196;SDS011;55019;49.382;11.358;2023-06-10T07:28:51;5.22;;;4.57;;
68196;SDS011;55019;49.382;11.358;2023-06-10T07:31:17;5.20;;;4.70;;
68196;SDS011;55019;49.382;11.358;2023-06-10T07:33:43;5.28;;;4.78;;
68196;SDS011;55019;49.382;11.358;2023-06-10T07:36:08;5.82;;;4.82;;
68196;SDS011;55019;49.382;11.358;2023-06-10T07:38:35;4.50;;;4.07;;
68196;SDS011;55019;49.382;11.358;2023-06-10T07:41:01;4.88;;;4.40;;
68196;SDS011;55019;49.382;11.358;2023-06-10T07:43:26;6.93;;;6.28;;
68196;SDS011;55019;49.382;11.358;2023-06-10T07:45:52;4.75;;;4.18;;
68196;SDS011;55019;49.382;11.358;2023-06-10T07:48:18;6.85;;;6.15;;
68196;SDS011;55019;49.382;11.358;2023-06-10T07:50:44;5.65;;;5.03;;
68196;SDS011;55019;49.382;11.358;2023-06-10T07:53:09;4.35;;;3.92;;
68196;SDS011;55019;49.382;11.358;2023-06-10T07:55:35;4.65;;;4.25;;
68196;SDS011;55019;49.382;11.358;2023-06-10T07:58:01;5.40;;;4.88;;
68196;SDS011;55019;49.382;11.358;2023-06-10T08:00:27;4.70;;;4.10;;
68196;SDS011;55019;49.382;11.358;2023-06-10T08:02:53;3.88;;;3.45;;
68196;SDS011;55019;49.382;11.358;2023-06-10T08:05:18;5.20;;;4.70;;
68196;SDS011;55019;49.382;11.358;2023-06-10T08:07:45;4.20;;;3.80;;
68196;SDS011;55019;49.382;11.358;2023-06-10T08:10:11;4.95;;;4.45;;
68196;SDS011;55019;49.382;11.358;2023-06-10T08:12:37;4.53;;;4.13;;
68196;SDS011;55019;49.382;11.358;2023-06-10T08:15:02;6.05;;;5.47;;
68196;SDS011;55019;49.382;11.358;2023-06-10T08:17:32;4.40;;;3.90;;
68196;SDS011;55019;49.382;11.358;2023-06-10T08:19:58;4.28;;;3.97;;
68196;SDS011;55019;49.382;11.358;2023-06-10T08:22:24;5.18;;;4.78;;
68196;SDS011;55019;49.382;11.358;2023-06-10T08:24:49;4.90;;;4.35;;
68196;SDS011;55019;49.382;11.358;2023-06-10T08:27:15;5.10;;;4.70;;
68196;SDS011;55019;49.382;11.358;2023-06-10T08:29:41;4.28;;;3.88;;
68196;SDS011;55019;49.382;11.358;2023-06-10T08:32:06;4.28;;;3.90;;
68196;SDS011;55019;49.382;11.358;2023-06-10T08:34:35;4.43;;;4.03;;
68196;SDS011;55019;49.382;11.358;2023-06-10T08:37:02;5.00;;;4.60;;
68196;SDS011;55019;49.382;11.358;2023-06-10T08:39:28;4.82;;;4.43;;
68196;SDS011;55019;49.382;11.358;2023-06-10T08:42:03;4.38;;;3.97;;
68196;SDS011;55019;49.382;11.358;2023-06-10T08:44:36;4.55;;;4.15;;
68196;SDS011;55019;49.382;11.358;2023-06-10T08:47:06;4.80;;;4.40;;
68196;SDS011;55019;49.382;11.358;2023-06-10T08:49:38;4.72;;;4.32;;
68196;SDS011;55019;49.382;11.358;2023-06-10T08:52:17;4.82;;;4.20;;
68196;SDS011;55019;49.382;11.358;2023-06-10T08:57:44;4.40;;;4.07;;
68196;SDS011;55019;49.382;11.358;2023-06-10T09:00:11;5.43;;;4.97;;
68196;SDS011;55019;49.382;11.358;2023-06-10T09:02:38;5.13;;;4.60;;
68196;SDS011;55019;49.382;11.358;2023-06-10T09:05:05;4.95;;;4.55;;
68196;SDS011;55019;49.382;11.358;2023-06-10T09:07:31;4.93;;;4.57;;
68196;SDS011;55019;49.382;11.358;2023-06-10T09:09:57;5.00;;;4.60;;
68196;SDS011;55019;49.382;11.358;2023-06-10T09:12:24;4.57;;;4.25;;
68196;SDS011;55019;49.382;11.358;2023-06-10T09:14:50;4.68;;;4.28;;
68196;SDS011;55019;49.382;11.358;2023-06-10T09:17:16;5.47;;;4.97;;
68196;SDS011;55019;49.382;11.358;2023-06-10T09:19:42;4.80;;;4.40;;
68196;SDS011;55019;49.382;11.358;2023-06-10T09:22:09;4.75;;;4.35;;
68196;SDS011;55019;49.382;11.358;2023-06-10T09:24:35;6.30;;;5.72;;
68196;SDS011;55019;49.382;11.358;2023-06-10T09:27:02;4.75;;;3.92;;
68196;SDS011;55019;49.382;11.358;2023-06-10T09:29:39;5.40;;;4.72;;
68196;SDS011;55019;49.382;11.358;2023-06-10T09:32:12;4.60;;;4.30;;
68196;SDS011;55019;49.382;11.358;2023-06-10T09:34:38;4.30;;;4.00;;
68196;SDS011;55019;49.382;11.358;2023-06-10T09:37:05;4.05;;;3.75;;
68196;SDS011;55019;49.382;11.358;2023-06-10T09:39:31;4.25;;;3.83;;
68196;SDS011;55019;49.382;11.358;2023-06-10T09:41:56;4.75;;;4.28;;
68196;SDS011;55019;49.382;11.358;2023-06-10T09:44:22;3.88;;;3.58;;
68196;SDS011;55019;49.382;11.358;2023-06-10T09:46:51;4.47;;;4.07;;
68196;SDS011;55019;49.382;11.358;2023-06-10T09:49:17;4.30;;;3.90;;
68196;SDS011;55019;49.382;11.358;2023-06-10T09:51:53;5.03;;;4.63;;
68196;SDS011;55019;49.382;11.358;2023-06-10T09:54:20;4.43;;;4.05;;
68196;SDS011;55019;49.382;11.358;2023-06-10T09:56:49;4.30;;;3.97;;
68196;SDS011;55019;49.382;11.358;2023-06-10T09:59:29;4.97;;;4.57;;
68196;SDS011;55019;49.382;11.358;2023-06-10T10:01:57;4.88;;;4.47;;
68196;SDS011;55019;49.382;11.358;2023-06-10T10:04:23;4.40;;;4.00;;
68196;SDS011;55019;49.382;11.358;2023-06-10T10:06:50;4.65;;;4.25;;
68196;SDS011;55019;49.382;11.358;2023-06-10T10:09:16;4.13;;;3.72;;
68196;SDS011;55019;49.382;11.358;2023-06-10T10:11:42;4.85;;;4.30;;
68196;SDS011;55019;49.382;11.358;2023-06-10T10:14:09;5.13;;;4.65;;
68196;SDS011;55019;49.382;11.358;2023-06-10T10:16:36;5.28;;;4.43;;
68196;SDS011;55019;49.382;11.358;2023-06-10T10:19:16;4.70;;;4.30;;
68196;SDS011;55019;49.382;11.358;2023-06-10T10:22:07;4.88;;;4.38;;
68196;SDS011;55019;49.382;11.358;2023-06-10T10:24:42;4.70;;;4.30;;
68196;SDS011;55019;49.382;11.358;2023-06-10T10:27:18;5.05;;;4.55;;
68196;SDS011;55019;49.382;11.358;2023-06-10T10:29:52;4.93;;;4.53;;
68196;SDS011;55019;49.382;11.358;2023-06-10T10:32:20;5.18;;;4.68;;
68196;SDS011;55019;49.382;11.358;2023-06-10T10:37:32;4.75;;;4.35;;
68196;SDS011;55019;49.382;11.358;2023-06-10T10:39:59;4.05;;;3.65;;
68196;SDS011;55019;49.382;11.358;2023-06-10T10:42:26;3.70;;;3.40;;
68196;SDS011;55019;49.382;11.358;2023-06-10T10:44:52;4.13;;;3.83;;
68196;SDS011;55019;49.382;11.358;2023-06-10T10:47:20;4.63;;;4.25;;
68196;SDS011;55019;49.382;11.358;2023-06-10T10:49:47;5.70;;;5.22;;
68196;SDS011;55019;49.382;11.358;2023-06-10T10:52:15;5.03;;;4.63;;
68196;SDS011;55019;49.382;11.358;2023-06-10T10:54:45;3.85;;;3.55;;
68196;SDS011;55019;49.382;11.358;2023-06-10T10:57:16;4.18;;;3.88;;
68196;SDS011;55019;49.382;11.358;2023-06-10T10:59:56;4.40;;;4.10;;
68196;SDS011;55019;49.382;11.358;2023-06-10T11:02:34;4.22;;;3.90;;
68196;SDS011;55019;49.382;11.358;2023-06-10T11:05:13;4.07;;;3.75;;
68196;SDS011;55019;49.382;11.358;2023-06-10T11:07:40;3.88;;;3.58;;
68196;SDS011;55019;49.382;11.358;2023-06-10T11:10:16;4.50;;;4.15;;
68196;SDS011;55019;49.382;11.358;2023-06-10T11:15:18;3.40;;;3.20;;
68196;SDS011;55019;49.382;11.358;2023-06-10T11:26:14;4.43;;;4.03;;
68196;SDS011;55019;49.382;11.358;2023-06-10T11:31:19;3.80;;;3.40;;
68196;SDS011;55019;49.382;11.358;2023-06-10T11:33:52;4.15;;;3.85;;
68196;SDS011;55019;49.382;11.358;2023-06-10T11:36:20;3.63;;;3.33;;
68196;SDS011;55019;49.382;11.358;2023-06-10T11:38:46;3.85;;;3.55;;
68196;SDS011;55019;49.382;11.358;2023-06-10T11:41:11;4.07;;;3.67;;
68196;SDS011;55019;49.382;11.358;2023-06-10T11:43:44;3.88;;;3.58;;
68196;SDS011;55019;49.382;11.358;2023-06-10T11:46:11;4.22;;;3.92;;
68196;SDS011;55019;49.382;11.358;2023-06-10T11:48:37;3.13;;;2.92;;
68196;SDS011;55019;49.382;11.358;2023-06-10T11:51:09;3.85;;;3.55;;
68196;SDS011;55019;49.382;11.358;2023-06-10T11:53:35;3.20;;;3.00;;
68196;SDS011;55019;49.382;11.358;2023-06-10T11:56:00;3.72;;;3.42;;
68196;SDS011;55019;49.382;11.358;2023-06-10T11:58:26;3.38;;;3.17;;
68196;SDS011;55019;49.382;11.358;2023-06-10T12:00:55;3.67;;;3.38;;
68196;SDS011;55019;49.382;11.358;2023-06-10T12:03:24;3.35;;;3.15;;
68196;SDS011;55019;49.382;11.358;2023-06-10T12:05:59;4.03;;;3.72;;
68196;SDS011;55019;49.382;11.358;2023-06-10T12:08:27;3.13;;;2.92;;
68196;SDS011;55019;49.382;11.358;2023-06-10T12:10:53;3.35;;;3.13;;
68196;SDS011;55019;49.382;11.358;2023-06-10T12:13:19;3.42;;;3.13;;
68196;SDS011;55019;49.382;11.358;2023-06-10T12:15:45;3.25;;;2.95;;
68196;SDS011;55019;49.382;11.358;2023-06-10T12:18:24;3.55;;;3.25;;
68196;SDS011;55019;49.382;11.358;2023-06-10T12:20:50;4.72;;;3.25;;
68196;SDS011;55019;49.382;11.358;2023-06-10T12:23:17;3.28;;;3.08;;
68196;SDS011;55019;49.382;11.358;2023-06-10T12:25:50;3.08;;;2.78;;
68196;SDS011;55019;49.382;11.358;2023-06-10T12:30:45;3.50;;;3.20;;
68196;SDS011;55019;49.382;11.358;2023-06-10T12:33:21;2.95;;;2.75;;
68196;SDS011;55019;49.382;11.358;2023-06-10T12:35:50;3.03;;;2.72;;
68196;SDS011;55019;49.382;11.358;2023-06-10T12:38:21;3.38;;;3.13;;
68196;SDS011;55019;49.382;11.358;2023-06-10T12:40:47;3.90;;;3.60;;
68196;SDS011;55019;49.382;11.358;2023-06-10T12:43:13;3.65;;;3.35;;
68196;SDS011;55019;49.382;11.358;2023-06-10T12:45:45;3.60;;;3.30;;
68196;SDS011;55019;49.382;11.358;2023-06-10T12:48:23;3.67;;;3.38;;
68196;SDS011;55019;49.382;11.358;2023-06-10T12:50:56;3.50;;;3.22;;
68196;SDS011;55019;49.382;11.358;2023-06-10T12:53:22;3.30;;;3.10;;
68196;SDS011;55019;49.382;11.358;2023-06-10T12:55:50;3.55;;;3.35;;
68196;SDS011;55019;49.382;11.358;2023-06-10T12:58:16;2.95;;;2.75;;
68196;SDS011;55019;49.382;11.358;2023-06-10T13:00:42;3.08;;;2.88;;
68196;SDS011;55019;49.382;11.358;2023-06-10T13:03:08;3.20;;;3.00;;
68196;SDS011;55019;49.382;11.358;2023-06-10T13:05:35;3.05;;;2.85;;
68196;SDS011;55019;49.382;11.358;2023-06-10T13:08:08;3.22;;;2.92;;
68196;SDS011;55019;49.382;11.358;2023-06-10T13:10:35;3.17;;;2.88;;
68196;SDS011;55019;49.382;11.358;2023-06-10T13:13:01;3.40;;;3.10;;
68196;SDS011;55019;49.382;11.358;2023-06-10T13:15:30;3.22;;;3.03;;
68196;SDS011;55019;49.382;11.358;2023-06-10T13:17:56;2.95;;;2.72;;
68196;SDS011;55019;49.382;11.358;2023-06-10T13:20:21;2.90;;;2.70;;
68196;SDS011;55019;49.382;11.358;2023-06-10T13:22:47;2.72;;;2.53;;
68196;SDS011;55019;49.382;11.358;2023-06-10T13:30:07;3.63;;;3.40;;
68196;SDS011;55019;49.382;11.358;2023-06-10T13:32:35;3.20;;;3.00;;
68196;SDS011;55019;49.382;11.358;2023-06-10T13:35:01;3.45;;;2.80;;
68196;SDS011;55019;49.382;11.358;2023-06-10T13:37:27;2.80;;;2.60;;
68196;SDS011;55019;49.382;11.358;2023-06-10T13:39:52;4.90;;;2.78;;
68196;SDS011;55019;49.382;11.358;2023-06-10T13:42:18;3.03;;;2.75;;
68196;SDS011;55019;49.382;11.358;2023-06-10T13:44:46;2.72;;;2.45;;
68196;SDS011;55019;49.382;11.358;2023-06-10T13:47:13;3.22;;;2.70;;
68196;SDS011;55019;49.382;11.358;2023-06-10T13:49:39;2.65;;;2.40;;
68196;SDS011;55019;49.382;11.358;2023-06-10T13:52:06;3.42;;;3.13;;
68196;SDS011;55019;49.382;11.358;2023-06-10T13:59:23;2.13;;;1.88;;
68196;SDS011;55019;49.382;11.358;2023-06-10T14:01:49;2.50;;;2.30;;
68196;SDS011;55019;49.382;11.358;2023-06-10T14:04:14;2.30;;;2.20;;
68196;SDS011;55019;49.382;11.358;2023-06-10T14:06:40;2.95;;;2.40;;
68196;SDS011;55019;49.382;11.358;2023-06-10T14:09:06;2.45;;;2.25;;
68196;SDS011;55019;49.382;11.358;2023-06-10T14:11:32;2.55;;;2.35;;
68196;SDS011;55019;49.382;11.358;2023-06-10T14:13:58;2.38;;;2.10;;
68196;SDS011;55019;49.382;11.358;2023-06-10T14:16:24;2.38;;;2.28;;
68196;SDS011;55019;49.382;11.358;2023-06-10T14:18:50;1.90;;;1.80;;
68196;SDS011;55019;49.382;11.358;2023-06-10T14:21:16;2.25;;;1.90;;
68196;SDS011;55019;49.382;11.358;2023-06-10T14:23:42;1.92;;;1.83;;
68196;SDS011;55019;49.382;11.358;2023-06-10T14:26:11;3.17;;;2.97;;
68196;SDS011;55019;49.382;11.358;2023-06-10T14:28:37;2.22;;;2.03;;
68196;SDS011;55019;49.382;11.358;2023-06-10T14:31:03;2.22;;;2.03;;
68196;SDS011;55019;49.382;11.358;2023-06-10T14:33:29;2.67;;;2.47;;
68196;SDS011;55019;49.382;11.358;2023-06-10T14:35:56;2.28;;;2.15;;
68196;SDS011;55019;49.382;11.358;2023-06-10T14:38:22;2.30;;;2.10;;
68196;SDS011;55019;49.382;11.358;2023-06-10T14:40:48;2.25;;;1.95;;
68196;SDS011;55019;49.382;11.358;2023-06-10T14:43:13;2.55;;;2.35;;
68196;SDS011;55019;49.382;11.358;2023-06-10T14:45:42;2.30;;;2.20;;
68196;SDS011;55019;49.382;11.358;2023-06-10T14:48:10;2.25;;;2.15;;
68196;SDS011;55019;49.382;11.358;2023-06-10T14:50:36;2.00;;;1.80;;
68196;SDS011;55019;49.382;11.358;2023-06-10T14:53:02;2.63;;;2.42;;
68196;SDS011;55019;49.382;11.358;2023-06-10T14:55:28;2.30;;;2.10;;
68196;SDS011;55019;49.382;11.358;2023-06-10T14:57:53;2.30;;;2.15;;
68196;SDS011;55019;49.382;11.358;2023-06-10T15:00:20;2.40;;;2.20;;
68196;SDS011;55019;49.382;11.358;2023-06-10T15:02:48;2.50;;;2.30;;
68196;SDS011;55019;49.382;11.358;2023-06-10T15:05:14;3.10;;;2.78;;
68196;SDS011;55019;49.382;11.358;2023-06-10T15:07:41;2.92;;;2.63;;
68196;SDS011;55019;49.382;11.358;2023-06-10T15:10:07;3.38;;;3.03;;
68196;SDS011;55019;49.382;11.358;2023-06-10T15:12:33;3.63;;;3.17;;
68196;SDS011;55019;49.382;11.358;2023-06-10T15:15:00;5.13;;;3.53;;
68196;SDS011;55019;49.382;11.358;2023-06-10T15:17:26;3.17;;;2.88;;
68196;SDS011;55019;49.382;11.358;2023-06-10T15:19:51;3.35;;;2.97;;
68196;SDS011;55019;49.382;11.358;2023-06-10T15:22:17;3.30;;;3.05;;